This is the latest recevied weather packets stored in our database for station/object IZ8GMP-13. If no packets are shown the sender has not sent any weather packets the latest 1 day(s).
| Time | Temp. | Humidity | Pressure | Rain* | Wind** | Luminosity | Snow |
|---|---|---|---|---|---|---|---|
| 1778077990 | 20° C | 68% | 1014.3 hPa | - | - | - | - |
| 1778076786 | 21.11° C | 66% | 1014.4 hPa | - | - | - | - |
| 1778075582 | 21.67° C | 63% | 1014.4 hPa | - | - | - | - |
| 1778074378 | 21.67° C | 60% | 1014.1 hPa | - | - | - | - |
| 1778073174 | 21.67° C | 62% | 1014.5 hPa | - | - | - | - |
| 1778071970 | 21.11° C | 64% | 1014.9 hPa | - | - | - | - |
| 1778070766 | 21.67° C | 63% | 1014.9 hPa | - | - | - | - |
| 1778067156 | 22.78° C | 47% | 1015.1 hPa | - | - | - | - |
| 1778063546 | 23.33° C | 42% | 1015.4 hPa | - | - | - | - |
| 1778059934 | 21.67° C | 49% | 1015.5 hPa | - | - | - | - |
| 1778055120 | 21.67° C | 55% | 1015.5 hPa | - | - | - | - |
| 1778052713 | 20.56° C | 62% | 1015.7 hPa | - | - | - | - |
| 1778051510 | 20.56° C | 62% | 1015.7 hPa | - | - | - | - |
| 1778050306 | 18.89° C | 70% | 1015.8 hPa | - | - | - | - |
| 1778047898 | 19.44° C | 67% | 1015.5 hPa | - | - | - | - |
| 1778046694 | 18.89° C | 70% | 1015.1 hPa | - | - | - | - |
| 1778044286 | 17.78° C | 73% | 1015.1 hPa | - | - | - | - |
| 1778043082 | 17.22° C | 69% | 1015 hPa | - | - | - | - |
| 1778041879 | 17.78° C | 72% | 1015 hPa | - | - | - | - |
| 1778033453 | 17.22° C | 76% | 1014.9 hPa | - | - | - | - |
| 1778031046 | 17.22° C | 76% | 1015 hPa | - | - | - | - |
| 1778029843 | 17.22° C | 77% | 1015.3 hPa | - | - | - | - |
| 1778028639 | 17.22° C | 77% | 1015.4 hPa | - | - | - | - |
| 1778027436 | 17.22° C | 77% | 1015.4 hPa | - | - | - | - |
| 1778025029 | 17.78° C | 76% | 1015.7 hPa | - | - | - | - |
* Rain since midnight (hover to see other rain measurements)
** Current wind speed in m/s (hover to see current wind gust speed)